Time;durP1;ratioP1;P1;durP2;ratioP2;P2;SDS_P1;SDS_P2;PMS_P1;PMS_P2;Temp;Humidity;BMP_temperature;BMP_pressure;BME280_temperature;BME280_humidity;BME280_pressure;Samples;Min_cycle;Max_cycle;Signal;HPM_P1;HPM_P2
2022/09/30 00:01:04;;;;;;;3.87;3.00;;;;;;;6.92;74.69;98052.94;5134182;27;40285;-86
2022/09/30 00:03:32;;;;;;;5.03;3.50;;;;;;;7.01;74.91;98068.19;5116903;27;40644;-88
2022/09/30 00:06:02;;;;;;;4.47;3.40;;;;;;;6.92;74.97;98050.31;5117454;27;41701;-85
2022/09/30 00:08:30;;;;;;;4.30;3.57;;;;;;;6.93;75.03;98058.09;5116987;27;41481;-85
2022/09/30 00:11:03;;;;;;;4.53;3.47;;;;;;;7.06;75.12;98079.25;5117004;27;40050;-85
2022/09/30 00:13:31;;;;;;;4.10;3.40;;;;;;;7.01;75.19;98076.06;5116741;27;42998;-83
2022/09/30 00:16:01;;;;;;;4.37;3.37;;;;;;;7.02;75.40;98075.13;5116919;27;42551;-85
2022/09/30 00:18:29;;;;;;;3.90;3.50;;;;;;;6.91;75.52;98061.78;5116637;27;41615;-83
2022/09/30 00:20:58;;;;;;;4.27;3.40;;;;;;;6.87;75.27;98065.53;5117213;27;39073;-84
2022/09/30 00:23:26;;;;;;;4.07;3.30;;;;;;;6.83;75.34;98068.34;5116419;27;42349;-86
2022/09/30 00:25:59;;;;;;;7.50;3.60;;;;;;;6.80;75.62;98078.19;5117123;27;42906;-86
2022/09/30 00:28:27;;;;;;;5.03;3.93;;;;;;;6.87;75.62;98097.09;5116328;27;42218;-84
2022/09/30 00:30:54;;;;;;;3.70;3.30;;;;;;;6.69;75.49;98084.09;5134271;27;39903;-84
2022/09/30 00:33:24;;;;;;;5.57;4.13;;;;;;;6.79;75.97;98095.78;5116308;27;41976;-85
2022/09/30 00:35:51;;;;;;;4.60;4.00;;;;;;;6.62;75.97;98076.66;5116450;27;42549;-84
2022/09/30 00:38:19;;;;;;;3.83;3.53;;;;;;;6.63;76.42;98081.84;5116602;27;42047;-85
2022/09/30 00:40:48;;;;;;;4.37;3.67;;;;;;;6.68;76.13;98084.19;5116739;27;40133;-87
2022/09/30 00:43:18;;;;;;;5.43;4.50;;;;;;;6.71;75.98;98092.75;5116485;27;41723;-88
2022/09/30 00:45:51;;;;;;;4.93;3.63;;;;;;;6.73;76.06;98100.56;5116035;27;43019;-86
2022/09/30 00:48:27;;;;;;;4.87;4.33;;;;;;;6.72;76.15;98104.13;5116122;27;41244;-87
2022/09/30 00:50:57;;;;;;;7.83;4.37;;;;;;;6.57;76.05;98086.59;5116484;27;39658;-84
2022/09/30 00:53:30;;;;;;;5.80;5.17;;;;;;;6.68;76.67;98106.06;5133393;27;42698;-86
2022/09/30 00:56:00;;;;;;;6.23;4.67;;;;;;;6.75;76.42;98107.44;5133503;27;43075;-86
2022/09/30 00:58:31;;;;;;;5.63;4.10;;;;;;;6.78;76.29;98104.63;5133362;27;42524;-84
2022/09/30 01:01:01;;;;;;;5.43;4.63;;;;;;;6.71;76.39;98098.00;5116261;27;40342;-83
2022/09/30 01:03:32;;;;;;;6.00;4.30;;;;;;;6.72;75.98;98083.91;5116660;27;41548;-84
2022/09/30 01:06:02;;;;;;;6.40;4.20;;;;;;;6.75;75.96;98089.00;5115948;27;41794;-84
2022/09/30 01:08:32;;;;;;;5.67;4.17;;;;;;;6.75;75.82;98089.00;5116019;27;41082;-85
2022/09/30 01:11:00;;;;;;;4.43;3.93;;;;;;;6.76;75.91;98089.84;5116180;27;39102;-86
2022/09/30 01:13:31;;;;;;;4.63;3.80;;;;;;;6.76;75.79;98090.72;5133188;27;40752;-84
2022/09/30 01:16:17;;;;;;;4.90;3.93;;;;;;;6.91;75.88;98106.53;5115741;27;43044;-87
2022/09/30 01:19:01;;;;;;;4.63;3.93;;;;;;;6.90;76.19;98112.72;5116314;27;41328;-86
2022/09/30 01:21:50;;;;;;;5.20;4.20;;;;;;;6.90;75.88;98118.84;5132899;27;39160;-86
2022/09/30 01:24:38;;;;;;;4.77;3.87;;;;;;;6.87;75.72;98110.25;5116412;27;41925;-87
2022/09/30 01:27:18;;;;;;;5.70;4.10;;;;;;;6.77;75.66;98097.66;5115882;27;41780;-86
2022/09/30 01:30:09;;;;;;;5.50;3.93;;;;;;;6.76;75.81;98093.34;5115895;27;41331;-86
2022/09/30 01:33:10;;;;;;;6.30;3.63;;;;;;;6.85;76.62;98113.84;5116927;27;38916;-83
2022/09/30 01:35:47;;;;;;;5.63;4.63;;;;;;;6.75;76.25;98098.69;5141640;27;42300;-86
2022/09/30 01:38:25;;;;;;;5.17;4.33;;;;;;;6.72;76.16;98102.34;5118226;27;41906;-84
2022/09/30 01:41:05;;;;;;;5.10;4.20;;;;;;;6.75;76.21;98117.94;5119770;27;41288;-86
2022/09/30 01:43:43;;;;;;;4.57;3.87;;;;;;;6.64;76.41;98099.31;5130554;27;39801;-84
2022/09/30 01:46:21;;;;;;;4.93;4.27;;;;;;;6.66;76.23;98113.25;5129864;27;40686;-84
2022/09/30 01:48:57;;;;;;;4.43;3.97;;;;;;;6.47;76.38;98075.78;5132588;27;42210;-83
2022/09/30 01:51:32;;;;;;;5.20;3.60;;;;;;;6.62;76.34;98111.72;5147746;27;42816;-84
2022/09/30 01:54:06;;;;;;;4.60;4.00;;;;;;;6.53;76.38;98099.09;5136422;27;41933;-86
2022/09/30 01:56:42;;;;;;;9.37;5.60;;;;;;;6.60;76.38;98112.72;5118324;27;40839;-86
2022/09/30 01:59:14;;;;;;;4.60;4.10;;;;;;;6.71;76.58;98126.94;5133043;27;42546;-86
2022/09/30 02:01:48;;;;;;;4.40;4.00;;;;;;;6.72;76.91;98123.38;5118724;27;41068;-85
2022/09/30 02:04:21;;;;;;;7.77;4.87;;;;;;;6.61;76.72;98104.75;5119060;27;39993;-85
2022/09/30 02:06:52;;;;;;;4.13;3.73;;;;;;;6.60;76.72;98108.31;5118545;27;41803;-84
2022/09/30 02:09:24;;;;;;;4.37;3.97;;;;;;;6.69;76.75;98130.59;5133003;27;42724;-83
2022/09/30 02:11:54;;;;;;;6.47;4.10;;;;;;;6.62;76.25;98116.97;5136052;27;41123;-86
2022/09/30 02:14:29;;;;;;;3.67;3.37;;;;;;;6.54;76.43;98105.22;5118913;27;40245;-86
2022/09/30 02:17:02;;;;;;;4.43;3.97;;;;;;;6.72;76.20;98128.66;5135127;27;41913;-84
2022/09/30 02:19:39;;;;;;;4.13;3.57;;;;;;;6.76;76.37;98130.19;5133672;27;42652;-87
2022/09/30 02:22:12;;;;;;;4.07;3.33;;;;;;;6.79;76.21;98131.78;5118917;27;41952;-84
2022/09/30 02:24:42;;;;;;;3.33;3.03;;;;;;;6.82;76.34;98140.31;5133041;27;40039;-87
2022/09/30 02:27:15;;;;;;;4.53;3.50;;;;;;;6.64;76.70;98109.00;5118650;27;40389;-84
2022/09/30 02:29:48;;;;;;;4.50;3.70;;;;;;;6.90;76.99;98131.16;5118759;27;42640;-84
2022/09/30 02:32:22;;;;;;;5.97;4.30;;;;;;;6.78;76.97;98116.94;5118021;27;41856;-84
2022/09/30 02:34:56;;;;;;;5.03;4.23;;;;;;;6.95;77.41;98140.44;5118679;27;41116;-86
2022/09/30 02:37:28;;;;;;;5.67;4.10;;;;;;;6.89;77.16;98138.19;5135536;27;40547;-87
2022/09/30 02:40:06;;;;;;;4.87;3.80;;;;;;;6.88;77.28;98130.38;5135899;27;42606;-86
2022/09/30 02:42:40;;;;;;;3.73;3.40;;;;;;;6.90;77.25;98128.50;5118638;27;42535;-86
2022/09/30 02:45:11;;;;;;;3.93;3.30;;;;;;;7.01;76.94;98153.25;5132434;27;40175;-87
2022/09/30 02:47:50;;;;;;;5.67;3.57;;;;;;;7.02;77.28;98157.59;5118610;27;41262;-84
2022/09/30 02:50:27;;;;;;;4.67;3.37;;;;;;;6.92;77.37;98143.28;5118134;27;42986;-84
2022/09/30 02:53:08;;;;;;;4.60;3.50;;;;;;;6.93;77.33;98141.47;5118434;27;41354;-85
2022/09/30 02:55:49;;;;;;;3.23;2.90;;;;;;;6.91;77.32;98135.47;5118330;27;39237;-85
2022/09/30 02:58:19;;;;;;;3.07;2.70;;;;;;;6.94;77.77;98156.31;5133143;27;41680;-85
2022/09/30 03:00:47;;;;;;;3.40;3.10;;;;;;;6.85;77.77;98153.31;5118121;27;42396;-87
2022/09/30 03:03:19;;;;;;;3.10;2.83;;;;;;;6.93;77.94;98175.69;5117983;27;40882;-83
2022/09/30 03:05:51;;;;;;;3.23;2.93;;;;;;;6.85;77.57;98179.63;5118098;27;38623;-86
2022/09/30 03:08:19;;;;;;;3.10;2.80;;;;;;;6.68;77.85;98165.75;5135043;27;41833;-84
2022/09/30 03:10:50;;;;;;;3.17;2.87;;;;;;;6.66;77.89;98173.75;5117774;27;42805;-84
2022/09/30 03:13:43;;;;;;;2.60;2.33;;;;;;;6.55;77.99;98172.66;5117649;27;42639;-84
2022/09/30 03:16:21;;;;;;;2.50;2.30;;;;;;;6.49;77.82;98174.69;5084072;27;38852;-86
2022/09/30 03:19:07;;;;;;;2.67;2.47;;;;;;;6.46;77.63;98179.28;5118065;27;41031;-87
2022/09/30 03:21:52;;;;;;;4.67;2.67;;;;;;;6.09;77.81;98122.66;5117776;27;42298;-86
2022/09/30 03:24:35;;;;;;;2.47;2.27;;;;;;;6.44;77.54;98186.41;5134564;27;42253;-84
2022/09/30 03:27:14;;;;;;;2.63;2.40;;;;;;;6.43;77.53;98195.22;5117909;27;41595;-85
2022/09/30 03:29:50;;;;;;;4.33;2.10;;;;;;;6.23;77.57;98161.31;5117648;27;41912;-85
2022/09/30 03:32:30;;;;;;;2.80;2.37;;;;;;;6.25;77.75;98170.81;5134764;27;42365;-86
2022/09/30 03:35:04;;;;;;;2.47;2.27;;;;;;;6.22;77.52;98180.66;5134657;27;43747;-86
2022/09/30 03:37:45;;;;;;;2.10;1.90;;;;;;;6.24;77.43;98192.78;5117183;27;38966;-86
2022/09/30 03:40:23;;;;;;;2.47;2.27;;;;;;;6.14;77.38;98186.34;5131754;27;41855;-84
2022/09/30 03:42:57;;;;;;;2.17;1.83;;;;;;;6.17;77.53;98188.81;5117419;27;41568;-84
2022/09/30 03:45:31;;;;;;;2.93;2.63;;;;;;;6.03;77.19;98171.19;5117263;27;42382;-86
2022/09/30 03:48:03;;;;;;;3.10;2.47;;;;;;;6.19;77.22;98191.34;5117641;27;39119;-85
2022/09/30 03:50:33;;;;;;;2.50;2.30;;;;;;;6.20;77.25;98198.28;5117082;27;42162;-85
2022/09/30 03:53:03;;;;;;;2.23;2.03;;;;;;;6.18;77.23;98190.53;5134361;27;42685;-86
2022/09/30 03:55:32;;;;;;;2.03;1.87;;;;;;;6.37;77.31;98224.50;5116744;27;41331;-85
2022/09/30 03:58:01;;;;;;;3.00;2.60;;;;;;;6.29;77.60;98203.06;5134687;27;38963;-86
2022/09/30 04:00:31;;;;;;;2.53;2.33;;;;;;;6.42;77.41;98211.97;5116995;27;41091;-86
2022/09/30 04:02:59;;;;;;;4.00;2.20;;;;;;;6.42;77.52;98214.59;5116838;27;42813;-84
2022/09/30 04:05:26;;;;;;;3.00;2.70;;;;;;;6.36;77.20;98194.72;5116972;27;41028;-83
2022/09/30 04:07:54;;;;;;;2.90;2.43;;;;;;;6.38;77.57;98199.91;5116831;27;38689;-84
2022/09/30 04:10:23;;;;;;;2.60;2.40;;;;;;;6.44;77.52;98212.69;5133466;27;41880;-84
2022/09/30 04:12:54;;;;;;;3.07;2.67;;;;;;;6.52;77.39;98221.03;5133925;27;42744;-84
2022/09/30 04:15:22;;;;;;;3.07;2.07;;;;;;;6.46;77.49;98210.84;5116495;27;42279;-83
2022/09/30 04:17:49;;;;;;;3.20;2.27;;;;;;;6.39;77.63;98206.88;5134132;27;40884;-86
2022/09/30 04:20:17;;;;;;;2.90;2.67;;;;;;;6.39;77.63;98209.50;5134070;27;40699;-85
2022/09/30 04:22:45;;;;;;;2.27;2.07;;;;;;;6.05;77.53;98164.06;5116800;27;41771;-85
2022/09/30 04:25:13;;;;;;;2.80;2.60;;;;;;;6.31;77.67;98215.16;5133922;27;42345;-85
2022/09/30 04:27:42;;;;;;;3.07;2.77;;;;;;;6.26;77.28;98224.25;5116793;27;39310;-85
2022/09/30 04:30:11;;;;;;;2.50;2.27;;;;;;;6.31;77.74;98223.06;5133586;27;41699;-86
2022/09/30 04:32:44;;;;;;;2.33;2.13;;;;;;;6.24;77.52;98218.22;5133529;27;43771;-85
2022/09/30 04:35:12;;;;;;;2.60;2.17;;;;;;;6.38;77.32;98234.09;5116398;27;40999;-83
2022/09/30 04:37:43;;;;;;;3.77;2.27;;;;;;;6.41;77.30;98228.69;5134689;27;39977;-85
2022/09/30 04:40:11;;;;;;;2.30;1.97;;;;;;;6.42;77.37;98231.22;5116236;27;40665;-85
2022/09/30 04:42:39;;;;;;;2.47;2.10;;;;;;;6.36;77.50;98214.94;5133279;27;41916;-84
2022/09/30 04:45:11;;;;;;;2.17;1.97;;;;;;;6.44;77.29;98233.75;5116218;27;41418;-83
2022/09/30 04:47:39;;;;;;;2.70;2.30;;;;;;;6.43;77.63;98217.13;5116353;27;38541;-86
2022/09/30 04:50:07;;;;;;;2.53;2.20;;;;;;;6.50;77.21;98222.91;5116235;27;40830;-86
2022/09/30 04:52:37;;;;;;;2.47;2.20;;;;;;;6.48;77.24;98222.13;5133495;27;42508;-85
2022/09/30 04:55:05;;;;;;;2.80;2.60;;;;;;;6.51;77.14;98221.13;5133033;27;41197;-85
2022/09/30 04:57:33;;;;;;;3.67;2.60;;;;;;;6.53;77.44;98230.63;5115793;27;39218;-83
2022/09/30 05:00:01;;;;;;;3.67;2.60;;;;;;;6.52;77.36;98230.69;5116069;27;40697;-83
2022/09/30 05:02:32;;;;;;;3.57;2.83;;;;;;;6.61;77.25;98257.34;5133128;27;41906;-82
2022/09/30 05:05:02;;;;;;;2.27;2.13;;;;;;;6.60;77.40;98265.31;5116104;27;41404;-82
2022/09/30 05:07:31;;;;;;;2.03;1.93;;;;;;;6.40;77.62;98237.50;5115866;27;40722;-83
2022/09/30 05:09:58;;;;;;;2.67;2.27;;;;;;;6.54;77.26;98256.00;5116220;27;40516;-83
2022/09/30 05:12:26;;;;;;;4.77;1.90;;;;;;;6.54;77.40;98263.03;5115686;27;41776;-84
2022/09/30 05:14:54;;;;;;;2.30;2.10;;;;;;;6.53;77.47;98275.34;5133218;27;42765;-83
2022/09/30 05:17:22;;;;;;;2.80;2.50;;;;;;;6.51;77.34;98278.97;5115656;27;39039;-82
2022/09/30 05:19:51;;;;;;;5.90;3.00;;;;;;;6.39;77.57;98267.34;5133140;27;41878;-82
2022/09/30 05:22:19;;;;;;;3.90;2.57;;;;;;;6.40;77.57;98263.78;5114116;27;44515;-82
2022/09/30 05:24:47;;;;;;;2.63;2.43;;;;;;;6.43;77.59;98274.97;5115748;27;41592;-84
2022/09/30 05:27:14;;;;;;;2.90;2.30;;;;;;;6.49;77.90;98263.28;5116043;27;38922;-83
2022/09/30 05:29:42;;;;;;;3.33;2.40;;;;;;;6.63;77.62;98273.88;5132675;27;41825;-83
2022/09/30 05:32:10;;;;;;;2.87;2.57;;;;;;;6.75;77.39;98290.78;5115525;27;44131;-84
2022/09/30 05:34:38;;;;;;;2.93;2.73;;;;;;;6.77;77.76;98292.38;5132703;27;41816;-82
2022/09/30 05:37:09;;;;;;;4.40;2.90;;;;;;;6.85;77.55;98292.78;5115727;27;40209;-83
2022/09/30 05:39:37;;;;;;;3.27;2.57;;;;;;;6.75;77.57;98275.84;5115191;27;40632;-86
2022/09/30 05:42:05;;;;;;;2.60;2.40;;;;;;;6.63;77.42;98252.84;5107286;27;41837;-88
2022/09/30 05:44:33;;;;;;;2.93;2.70;;;;;;;6.91;77.43;98290.75;5114569;27;42802;-86
2022/09/30 05:47:01;;;;;;;3.17;2.87;;;;;;;6.90;77.45;98291.69;5114041;27;39253;-84
2022/09/30 05:49:29;;;;;;;3.73;3.33;;;;;;;6.99;77.14;98305.19;5115465;27;40793;-87
2022/09/30 05:51:56;;;;;;;4.60;3.90;;;;;;;7.00;77.38;98298.13;5107864;27;41993;-83
2022/09/30 05:54:26;;;;;;;5.67;4.13;;;;;;;6.94;77.28;98287.94;5114613;27;41831;-87
2022/09/30 05:56:54;;;;;;;9.17;5.57;;;;;;;7.01;77.20;98297.19;5131509;27;41854;-83
2022/09/30 05:59:21;;;;;;;10.80;5.10;;;;;;;7.12;76.98;98314.06;5115179;27;40855;-84
2022/09/30 06:01:49;;;;;;;8.23;4.43;;;;;;;7.09;77.26;98295.81;5131626;27;42178;-83
2022/09/30 06:04:17;;;;;;;11.37;6.13;;;;;;;7.14;77.50;98287.66;5114472;27;44147;-85
2022/09/30 06:06:46;;;;;;;8.63;5.33;;;;;;;7.21;77.09;98292.47;5114747;27;38993;-88
2022/09/30 06:09:13;;;;;;;5.10;3.40;;;;;;;7.28;77.03;98298.25;5132362;27;41829;-84
2022/09/30 06:11:43;;;;;;;4.00;3.40;;;;;;;7.45;76.76;98318.31;5114410;27;41849;-83
2022/09/30 06:14:12;;;;;;;3.10;2.80;;;;;;;7.17;77.18;98271.69;5132041;27;41431;-85
2022/09/30 06:16:40;;;;;;;3.77;2.50;;;;;;;7.37;76.77;98295.06;5131610;27;41030;-81
2022/09/30 06:19:08;;;;;;;3.13;2.70;;;;;;;7.58;76.83;98325.41;5131811;27;41513;-84
2022/09/30 06:21:35;;;;;;;3.50;2.13;;;;;;;7.58;76.69;98312.25;5131497;27;42638;-86
2022/09/30 06:24:03;;;;;;;4.17;2.67;;;;;;;7.69;76.67;98322.16;5115103;27;41179;-79
2022/09/30 06:26:31;;;;;;;4.57;2.80;;;;;;;7.73;76.54;98328.09;5113937;27;39343;-81
2022/09/30 06:29:00;;;;;;;3.20;2.90;;;;;;;7.75;76.24;98326.22;5131794;27;41645;-84
2022/09/30 06:31:29;;;;;;;4.37;3.03;;;;;;;7.72;76.23;98323.75;5131279;27;42120;-86
2022/09/30 06:33:57;;;;;;;4.33;2.97;;;;;;;7.66;76.29;98305.69;5115903;27;42373;-85
2022/09/30 06:36:28;;;;;;;5.23;3.60;;;;;;;7.83;76.15;98326.59;5134744;27;40285;-87
2022/09/30 06:38:55;;;;;;;6.00;3.60;;;;;;;7.82;76.30;98324.91;5102242;27;40564;-88
2022/09/30 06:41:26;;;;;;;3.70;3.20;;;;;;;8.01;76.13;98332.56;5117496;27;42933;-87
2022/09/30 06:43:54;;;;;;;4.43;3.13;;;;;;;8.11;75.90;98342.47;5117927;27;40657;-88
2022/09/30 06:46:26;;;;;;;4.80;3.47;;;;;;;8.18;75.89;98346.41;5117281;27;40791;-87
2022/09/30 06:48:57;;;;;;;3.60;3.30;;;;;;;8.37;75.70;98358.53;5118092;27;42709;-86
2022/09/30 06:51:25;;;;;;;4.00;3.60;;;;;;;8.32;74.93;98350.03;5117332;27;41741;-83
2022/09/30 06:53:55;;;;;;;9.00;3.33;;;;;;;8.40;75.12;98366.25;5135147;27;42656;-86
2022/09/30 06:56:23;;;;;;;5.33;3.80;;;;;;;8.35;74.87;98369.16;5116793;27;38556;-83
2022/09/30 06:58:50;;;;;;;3.60;3.30;;;;;;;8.26;75.20;98364.41;5117512;27;40603;-85
2022/09/30 07:01:19;;;;;;;7.43;3.70;;;;;;;8.43;75.50;98385.34;5116961;27;42101;-79
2022/09/30 07:03:48;;;;;;;3.80;3.40;;;;;;;8.55;75.00;98383.75;5134986;27;43710;-81
2022/09/30 07:06:16;;;;;;;5.07;4.00;;;;;;;8.58;74.84;98371.22;5133982;27;41942;-81
2022/09/30 07:08:44;;;;;;;4.23;3.77;;;;;;;8.89;74.74;98393.09;5117354;27;41781;-83
2022/09/30 07:11:15;;;;;;;4.00;3.50;;;;;;;8.98;74.28;98398.63;5134128;27;41519;-85
2022/09/30 07:13:44;;;;;;;4.27;3.83;;;;;;;9.02;73.89;98394.81;5133983;27;42334;-86
2022/09/30 07:16:13;;;;;;;4.90;4.13;;;;;;;9.04;73.73;98393.88;5133752;27;38947;-86
2022/09/30 07:18:43;;;;;;;4.20;3.80;;;;;;;9.06;73.62;98394.63;5117437;27;40656;-86
2022/09/30 07:21:14;;;;;;;4.77;4.37;;;;;;;9.22;73.53;98409.41;5117258;27;41865;-85
2022/09/30 07:23:46;;;;;;;4.40;4.00;;;;;;;9.16;73.63;98403.66;5117804;27;41140;-86
2022/09/30 07:26:14;;;;;;;5.70;4.30;;;;;;;9.33;73.54;98420.13;5117331;27;39154;-86
2022/09/30 07:28:42;;;;;;;4.27;3.70;;;;;;;9.42;73.65;98409.91;5117489;27;41249;-86
2022/09/30 07:31:14;;;;;;;4.27;3.67;;;;;;;9.42;73.45;98389.63;5116689;27;41752;-87
2022/09/30 07:33:43;;;;;;;4.27;3.87;;;;;;;9.63;73.02;98409.38;5117041;27;42121;-82
2022/09/30 07:36:17;;;;;;;4.33;3.93;;;;;;;9.47;72.47;98376.97;5116364;27;40242;-86
2022/09/30 07:38:48;;;;;;;4.80;4.27;;;;;;;9.61;72.38;98407.78;5117137;27;42077;-85
2022/09/30 07:41:20;;;;;;;4.57;4.17;;;;;;;9.87;72.42;98421.94;5116846;27;41702;-81
2022/09/30 07:43:49;;;;;;;6.67;4.17;;;;;;;10.01;71.56;98430.59;5116987;27;41300;-82
2022/09/30 07:46:19;;;;;;;4.73;4.27;;;;;;;10.05;71.71;98423.31;5133334;27;40018;-84
2022/09/30 07:48:50;;;;;;;5.23;3.77;;;;;;;9.95;70.78;98403.75;5117270;27;40552;-88
2022/09/30 07:51:22;;;;;;;4.27;3.87;;;;;;;10.03;70.19;98435.81;5116464;27;41842;-87
2022/09/30 07:53:52;;;;;;;3.90;3.53;;;;;;;10.01;70.62;98432.44;5117221;27;41473;-86
2022/09/30 07:56:25;;;;;;;4.57;4.17;;;;;;;10.13;70.86;98436.06;5115803;27;39292;-87
2022/09/30 07:58:54;;;;;;;4.90;4.50;;;;;;;10.24;70.74;98437.06;5116945;27;40801;-86
2022/09/30 08:01:23;;;;;;;5.23;4.73;;;;;;;10.28;69.92;98429.72;5115928;27;41676;-84
2022/09/30 08:03:54;;;;;;;4.30;3.90;;;;;;;10.33;70.05;98415.25;5133870;27;43250;-86
2022/09/30 08:06:24;;;;;;;4.67;4.17;;;;;;;10.73;70.53;98454.88;5115992;27;40038;-88
2022/09/30 08:08:53;;;;;;;6.60;4.93;;;;;;;10.81;69.76;98439.28;5116295;27;40898;-85
2022/09/30 08:11:22;;;;;;;5.07;4.43;;;;;;;10.99;69.64;98440.66;5115931;27;41776;-87
2022/09/30 08:13:51;;;;;;;6.13;5.33;;;;;;;11.10;69.21;98459.28;5116584;27;42215;-87
2022/09/30 08:16:19;;;;;;;5.43;4.93;;;;;;;11.16;69.20;98464.13;5132780;27;42431;-86
2022/09/30 08:18:47;;;;;;;5.83;5.27;;;;;;;11.19;69.28;98452.47;5116221;27;42140;-85
2022/09/30 08:21:15;;;;;;;6.47;5.17;;;;;;;11.15;68.91;98435.09;5116022;27;42803;-84
2022/09/30 08:23:44;;;;;;;5.70;5.13;;;;;;;11.32;68.52;98441.84;5116002;27;41310;-82
2022/09/30 08:26:14;;;;;;;6.10;5.50;;;;;;;11.55;68.57;98474.63;5132707;27;41647;-87
2022/09/30 08:28:42;;;;;;;5.80;5.30;;;;;;;11.53;68.49;98466.78;5122850;27;42211;-85
2022/09/30 08:31:11;;;;;;;5.87;5.27;;;;;;;11.71;68.33;98485.84;5132566;27;44165;-85
2022/09/30 08:33:40;;;;;;;8.23;5.60;;;;;;;11.64;68.29;98485.41;5130960;27;41239;-84
2022/09/30 08:36:09;;;;;;;5.73;5.13;;;;;;;11.63;68.17;98488.19;5130193;27;38737;-84
2022/09/30 08:38:38;;;;;;;6.83;5.83;;;;;;;11.67;68.05;98485.19;5129319;27;41448;-82
2022/09/30 08:41:22;;;;;;;6.90;5.93;;;;;;;11.72;67.24;98485.72;5116899;27;42267;-82
2022/09/30 08:44:03;;;;;;;5.90;5.40;;;;;;;11.87;67.42;98503.19;5133253;27;42327;-87
2022/09/30 08:46:43;;;;;;;6.10;5.50;;;;;;;11.79;67.85;98497.59;5115696;27;39604;-84
2022/09/30 08:49:34;;;;;;;7.57;6.00;;;;;;;11.85;67.61;98494.50;5133184;27;41618;-88
2022/09/30 08:52:05;;;;;;;7.70;6.90;;;;;;;11.99;67.32;98508.56;5115608;27;43278;-90
2022/09/30 08:54:35;;;;;;;7.60;6.80;;;;;;;12.08;67.38;98506.09;5115379;27;43543;-84
2022/09/30 08:57:05;;;;;;;7.70;6.90;;;;;;;12.20;67.25;98520.25;5114707;27;38853;-83
2022/09/30 08:59:37;;;;;;;8.90;7.83;;;;;;;12.15;66.96;98506.47;5115257;27;41294;-85
2022/09/30 09:02:19;;;;;;;9.47;8.40;;;;;;;12.21;67.29;98511.31;5115407;27;41998;-85
2022/09/30 09:04:51;;;;;;;12.87;8.83;;;;;;;12.25;67.16;98507.47;5133091;27;42240;-88
2022/09/30 09:07:33;;;;;;;11.07;8.53;;;;;;;12.32;66.67;98516.69;5129582;27;40304;-85
2022/09/30 09:10:16;;;;;;;13.00;9.83;;;;;;;12.42;66.73;98515.03;5129546;27;41835;-84
2022/09/30 09:12:52;;;;;;;12.30;10.53;;;;;;;12.51;66.34;98518.78;5130368;27;43794;-83
2022/09/30 09:15:30;;;;;;;12.03;10.30;;;;;;;12.64;66.18;98529.31;5129091;27;42434;-83
2022/09/30 09:18:21;;;;;;;11.20;9.87;;;;;;;12.87;66.29;98521.28;5115367;27;43262;-83
2022/09/30 09:20:55;;;;;;;14.37;11.20;;;;;;;12.99;66.18;98529.25;5115056;27;40707;-88
2022/09/30 09:23:24;;;;;;;14.00;11.00;;;;;;;13.07;65.92;98527.72;5115369;27;41242;-86
2022/09/30 09:25:54;;;;;;;14.20;11.23;;;;;;;13.07;65.84;98517.09;5114986;27;41924;-87
2022/09/30 09:28:35;;;;;;;11.57;10.07;;;;;;;13.41;65.57;98525.09;5130642;27;40764;-89
2022/09/30 09:31:04;;;;;;;16.93;12.40;;;;;;;13.48;65.19;98505.00;5115127;27;42280;-89
2022/09/30 09:33:38;;;;;;;14.97;12.70;;;;;;;13.70;64.49;98531.63;5114916;27;43024;-87
2022/09/30 09:36:19;;;;;;;13.23;11.73;;;;;;;13.73;64.59;98526.03;5114765;27;42547;-88
2022/09/30 09:39:07;;;;;;;14.73;12.23;;;;;;;13.88;64.62;98524.78;5115107;27;39928;-86
2022/09/30 09:41:43;;;;;;;14.83;11.80;;;;;;;14.12;63.96;98526.41;5114791;27;41953;-84
2022/09/30 09:44:23;;;;;;;18.03;13.20;;;;;;;14.35;63.72;98544.00;5115348;27;41547;-88
2022/09/30 09:47:01;;;;;;;14.83;11.63;;;;;;;14.29;63.49;98523.22;5114758;27;42739;-88
2022/09/30 09:49:32;;;;;;;15.13;13.10;;;;;;;14.45;63.04;98550.31;5115205;27;40625;-86
2022/09/30 09:52:27;;;;;;;15.60;13.13;;;;;;;14.61;63.04;98540.03;5114870;27;40730;-86
2022/09/30 09:54:56;;;;;;;16.27;12.97;;;;;;;14.76;62.59;98545.06;5070037;27;41509;-86
2022/09/30 09:57:31;;;;;;;15.87;13.53;;;;;;;14.88;61.53;98538.69;5093571;28;41519;-88
2022/09/30 10:03:00;;;;;;;13.07;11.67;;;;;;;15.48;60.93;98529.03;5113916;27;42208;-87
2022/09/30 10:05:31;;;;;;;14.43;12.83;;;;;;;15.83;59.48;98529.44;5114370;27;43244;-87
2022/09/30 10:08:10;;;;;;;12.40;10.63;;;;;;;16.33;58.29;98518.69;5114604;27;42340;-89
2022/09/30 10:10:46;;;;;;;11.23;9.80;;;;;;;16.94;57.28;98502.38;5115031;27;42061;-89
2022/09/30 10:13:22;;;;;;;13.07;10.00;;;;;;;17.42;55.90;98527.16;5118458;27;40602;-89
2022/09/30 10:15:54;;;;;;;10.87;9.77;;;;;;;17.80;55.78;98528.00;5117821;27;42019;-88
2022/09/30 10:18:26;;;;;;;11.80;10.60;;;;;;;18.53;54.97;98523.41;5118454;27;41210;-84
2022/09/30 10:20:58;;;;;;;13.97;11.13;;;;;;;19.41;53.42;98527.72;5118052;27;39112;-85
2022/09/30 10:23:31;;;;;;;12.37;11.03;;;;;;;20.47;50.72;98539.78;5118141;27;40684;-86
2022/09/30 10:26:03;;;;;;;11.57;10.27;;;;;;;21.85;47.51;98553.09;5117980;27;44707;-89
2022/09/30 10:28:34;;;;;;;10.50;9.50;;;;;;;22.49;45.30;98545.72;5117831;27;43580;-89
2022/09/30 10:31:23;;;;;;;10.67;9.47;;;;;;;22.96;43.55;98564.44;5100722;27;42893;-88
2022/09/30 10:34:00;;;;;;;11.20;10.13;;;;;;;23.62;42.50;98565.50;5131469;27;41528;-88
2022/09/30 10:36:32;;;;;;;11.63;10.53;;;;;;;24.12;40.84;98582.84;5099073;27;43505;-88
2022/09/30 10:39:06;;;;;;;9.60;8.43;;;;;;;24.81;40.42;98577.84;5135962;27;41608;-87
2022/09/30 10:41:37;;;;;;;9.60;8.70;;;;;;;25.66;38.73;98583.22;5117641;27;39782;-89
2022/09/30 10:44:14;;;;;;;8.37;7.60;;;;;;;26.80;37.03;98582.47;5118382;27;40748;-87
2022/09/30 10:46:48;;;;;;;8.53;7.80;;;;;;;28.19;34.24;98605.06;5134248;27;43516;-90
2022/09/30 10:49:26;;;;;;;8.50;7.67;;;;;;;29.20;33.88;98591.53;5117988;27;41574;-91
2022/09/30 10:51:55;;;;;;;9.83;8.73;;;;;;;30.14;31.69;98598.69;5118116;27;39511;-82
2022/09/30 10:54:50;;;;;;;8.13;7.43;;;;;;;31.63;30.83;98608.81;5116855;27;41686;-84
2022/09/30 10:57:22;;;;;;;8.90;8.00;;;;;;;32.53;29.13;98615.75;5133593;27;41743;-87
2022/09/30 10:59:52;;;;;;;7.87;7.13;;;;;;;32.77;28.98;98604.50;5117608;27;41215;-87
2022/09/30 11:02:30;;;;;;;8.97;8.17;;;;;;;32.76;29.13;98604.75;5117178;27;40051;-86
2022/09/30 11:05:07;;;;;;;8.63;7.93;;;;;;;34.13;27.76;98604.31;5117298;27;42349;-91
2022/09/30 11:07:42;;;;;;;7.15;6.50;;;;;;;35.89;25.87;98610.09;5117362;27;42687;-89
2022/09/30 11:10:23;;;;;;;8.07;7.38;;;;;;;37.35;22.73;98611.81;5117014;27;41316;-88
2022/09/30 11:12:58;;;;;;;7.00;6.40;;;;;;;38.54;22.08;98622.47;5117270;27;38906;-82
2022/09/30 11:15:30;;;;;;;6.43;5.93;;;;;;;39.22;21.63;98606.03;5116421;27;41402;-81
2022/09/30 11:18:05;;;;;;;7.05;6.45;;;;;;;39.77;20.82;98608.38;5132242;27;43100;-82
2022/09/30 11:20:39;;;;;;;6.28;5.78;;;;;;;40.41;20.28;98620.25;5133781;27;42731;-81
2022/09/30 11:23:18;;;;;;;6.65;6.05;;;;;;;40.67;19.98;98618.81;5134394;27;39791;-83
2022/09/30 11:25:53;;;;;;;6.80;6.20;;;;;;;40.25;20.07;98607.63;5133627;27;42714;-83
2022/09/30 11:28:33;;;;;;;6.90;6.25;;;;;;;38.70;21.87;98594.44;5133878;27;41787;-82
2022/09/30 11:31:11;;;;;;;6.50;5.90;;;;;;;36.61;23.97;98576.28;5133558;27;40755;-84
2022/09/30 11:33:58;;;;;;;6.50;5.90;;;;;;;35.93;23.70;98589.19;5134235;27;39115;-84
2022/09/30 11:36:34;;;;;;;4.72;4.32;;;;;;;36.79;22.83;98590.72;5116359;27;40865;-84
2022/09/30 11:39:21;;;;;;;4.13;3.83;;;;;;;38.28;20.52;98602.34;5116890;27;41656;-83
2022/09/30 11:41:55;;;;;;;3.92;3.55;;;;;;;39.65;18.65;98620.97;5116682;27;41445;-83
2022/09/30 11:44:31;;;;;;;2.58;2.38;;;;;;;40.47;18.02;98605.16;5133495;27;39967;-85
2022/09/30 11:47:17;;;;;;;2.63;2.42;;;;;;;41.39;17.11;98627.81;5130393;27;42057;-83
2022/09/30 11:49:58;;;;;;;2.63;2.42;;;;;;;41.64;16.99;98620.22;5116487;27;44443;-86
2022/09/30 11:52:34;;;;;;;2.50;2.30;;;;;;;41.46;17.44;98605.16;5115572;27;42360;-84
2022/09/30 11:55:22;;;;;;;4.03;3.72;;;;;;;41.33;17.28;98622.63;5116351;27;40021;-84
2022/09/30 11:57:57;;;;;;;4.45;3.20;;;;;;;41.20;17.29;98608.34;5121376;27;41615;-88
2022/09/30 12:00:26;;;;;;;3.70;3.40;;;;;;;40.95;17.67;98560.66;5116259;27;41799;-86
2022/09/30 12:03:00;;;;;;;4.20;3.72;;;;;;;41.43;16.92;98583.53;5118327;27;42375;-91
2022/09/30 12:05:41;;;;;;;3.45;2.53;;;;;;;41.67;16.21;98583.44;5111182;28;39127;-90